SCC: Watkins Glen practice two times

Pos Num Class Team Time Gap To 1st Speed --- --- ----- ------------------------------ ---------- ------- ------- ------- 1. 81 GS Synergy Racing 2:06.102 97.064 2. 6...

Pos Num Class Team                                 Time     Gap  To 1st   Speed
--- --- ----- ------------------------------ ---------- ------- ------- -------
 1.  81 GS    Synergy Racing                   2:06.102                  97.064
 2.   6 GS    Zoom Motorsports                 2:06.132   0.030   0.030  97.041
 3.  55 GS    Multimatic Motorsports           2:06.419   0.287   0.317  96.821
 4.  16 GS    Zoom Motorsports                 2:06.599   0.180   0.497  96.683
 5.  90 GS    Automatic Racing                 2:06.748   0.149   0.646  96.570
 6.  60 GS    Finlay Motorsports               2:07.160   0.412   1.058  96.257
 7.  11 GS    Powell Motorsport                2:07.411   0.251   1.309  96.067
 8.   9 GS    Team Salad Racing                2:08.128   0.717   2.026  95.529
 9.  17 GS    Doncaster Racing                 2:08.368   0.240   2.266  95.351
10.  05 GS    Multimatic Motorsports           2:08.737   0.369   2.635  95.078
11.  21 GS    Bodymotion Racing                2:09.553   0.816   3.451  94.479
12.  35 GS    Schuitemaker Motorsports         2:09.618   0.065   3.516  94.431
13.  89 GS    LNS Motorsports                  2:10.507   0.889   4.405  93.788
14.  79 GS    Team Salad Racing                2:10.527   0.020   4.425  93.774
15.  13 GS    Unitech Racing                   2:10.566   0.039   4.464  93.746
16.  38 GS    BGB Motorsports                  2:10.948   0.382   4.846  93.472
17.  37 GS    JBS Motorsports                  2:11.473   0.525   5.371  93.099
18.   7 GS    Power Racing Team                2:11.557   0.084   5.455  93.040
19.  58 GS    Rehagen Racing                   2:11.971   0.414   5.869  92.748
20.  09 GS    Automatic Racing                 2:12.343   0.372   6.241  92.487
21.  48 ST    WTF Engineering                  2:13.076   0.733   6.974  91.978
22.  18 GS    Race Prep Motorsports            2:13.305   0.229   7.203  91.820
23.  27 ST    Bill Fenton Motorsports          2:13.416   0.111   7.314  91.743
24.  07 GS    Powell Motorsport                2:13.491   0.075   7.389  91.692
25.  83 GS    BGB Motorsports                  2:13.508   0.017   7.406  91.680
26.  69 GS    Krohn Racing/TRG                 2:13.697   0.189   7.595  91.550
27.  00 ST    Georgian Bay Motorsports         2:13.788   0.091   7.686  91.488
28.  29 ST    Bill Fenton Motorsports          2:13.982   0.194   7.880  91.356
29.  24 GS    Power Racing Team                2:14.575   0.593   8.473  90.953
30.  84 GS    DWW/GorillaRacing.com            2:14.902   0.327   8.800  90.733
31.  88 GS    Knobel Racing                    2:14.913   0.011   8.811  90.725
32.  23 GS    Hamilton Safe Motorsports        2:15.211   0.298   9.109  90.525
33.  71 ST    TC Kline Racing                  2:15.252   0.041   9.150  90.498
34.  49 ST    Southpaw Racing                  2:15.323   0.071   9.221  90.450
35.  39 ST    Matt Connolly Motorsports        2:15.411   0.088   9.309  90.391
36.  64 ST    Matt Connolly Motorsports        2:15.549   0.138   9.447  90.299
37.  99 GS    Anchor Racing                    2:15.929   0.380   9.827  90.047
38.  32 ST    Franklin American                2:16.007   0.078   9.905  89.995
39.  97 ST    Turner Motorsports               2:16.095   0.088   9.993  89.937
40.  36 ST    Compass360/Racing                2:16.837   0.742  10.735  89.449
41.  62 ST    DEI Racers Group                 2:17.893   1.056  11.791  88.764
42.  65 ST    SpeedSource                      2:18.154   0.261  12.052  88.597
43.  94 ST    Radial Motorsports               2:18.230   0.076  12.128  88.548
44.  34 GS    Schuitemaker Motorsports         2:18.385   0.155  12.283  88.449
45.  74 ST    Kensai Racing                    2:19.536   1.151  13.434  87.719
46.  46 ST    Franklin American Mortgage       2:19.966   0.430  13.864  87.450
47.  06 ST    Compass360/Racing                2:20.599   0.633  14.497  87.056
48.  68 ST    SpeedSource                      2:23.628   3.029  17.526  85.220
49.   5 GS    Blackforest Motorsports          2:25.963   2.335  19.861  83.857
50.  67 ST    SpeedSource                      2:26.427   0.464  20.325  83.591
51.  25 ST    HBAR Motorsports                 2:27.211   0.784  21.109  83.146
52.  20 ST    Nuzzo Motorsports                2:28.587   1.376  22.485  82.376
53.  93 GS    Anchor Racing                    2:28.596   0.009  22.494  82.371
54.  70 ST    SpeedSource                      2:29.880   1.284  23.778  81.665
55.  92 GS    Anchor Racing                    2:33.509   3.629  27.407  79.735
56.  02 ST    Nuzzo Motorsports                2:44.457  10.948  38.355  74.427
57.  59 GS    Rehagen Racing                   2:58.191  13.734  52.089  68.690
58.  47 GS    TF Racing                        3:03.718   5.527  57.616  66.624
59.  51 ST    Fountain Motorsports             3:22.457  18.739 1:16.35  60.457
60.  01 ST    Georgian Bay Motorsports          No Time
61.  12 ST    TC Kline Racing                   No Time
62.  14 GS    Frederick Motorsports             No Time
63.  15 GS    Frederick Motorsports             No Time
64.  19 GS    Race Prep Motorsports             No Time
65.  28 GS    Race Prep Motorsports             No Time
66.  43 GS    Team Sahlen                       No Time
67.  50 ST    Southpaw Racing                   No Time
68.  52 GS    Rehagen Racing                    No Time
69.  63 GS    Team RPM                          No Time
70.  66 ST    SpeedSource                       No Time
71.  95 ST    Turner Motorsports                No Time
72.  96 GS    Turner Motorsport                 No Time
73.  42 GS    Team Sahlen                       No Time
74.  40 GS    Team Sahlen                       No Time
75.  72 ST    Anchor Racing                     No Time

Be part of something big

Write a comment
Show comments
About this article
Series Grand-Am
Drivers Matt Connolly , Bill Fenton
Teams Krohn Racing , Rehagen Racing , Turner Motorsport , Team Sahlen , Multimatic Motorsports , Automatic Racing , Bodymotion Racing , SpeedSource